Time;durP1;ratioP1;P1;durP2;ratioP2;P2;SDS_P1;SDS_P2;PMS_P1;PMS_P2;Temp;Humidity;BMP_temperature;BMP_pressure;BME280_temperature;BME280_humidity;BME280_pressure;Samples;Min_cycle;Max_cycle;Signal;HPM_P1;HPM_P2
2021/07/09 00:02:09;;;;;;;0.55;0.55;;;;;;;;;;4999398;28;20033;-76
2021/07/09 00:04:36;;;;;;;0.63;0.52;;;;;;;;;;5005720;28;20097;-76
2021/07/09 00:07:02;;;;;;;0.52;0.52;;;;;;;;;;4997724;28;20026;-76
2021/07/09 00:09:28;;;;;;;0.60;0.50;;;;;;;;;;4997092;28;20027;-76
2021/07/09 00:11:55;;;;;;;0.60;0.60;;;;;;;;;;4995914;28;20026;-75
2021/07/09 00:14:26;;;;;;;0.40;0.40;;;;;;;;;;4996216;28;20450;-76
2021/07/09 00:16:52;;;;;;;0.63;0.63;;;;;;;;;;4996298;28;20042;-75
2021/07/09 00:19:18;;;;;;;1.58;0.57;;;;;;;;;;4997334;28;20476;-76
2021/07/09 00:21:45;;;;;;;0.75;0.38;;;;;;;;;;4997248;28;20042;-75
2021/07/09 00:24:12;;;;;;;0.93;0.65;;;;;;;;;;4997178;28;20041;-75
2021/07/09 00:26:39;;;;;;;0.50;0.50;;;;;;;;;;4996830;28;20594;-76
2021/07/09 00:29:05;;;;;;;0.40;0.40;;;;;;;;;;4996037;28;20027;-76
2021/07/09 00:31:33;;;;;;;0.52;0.52;;;;;;;;;;4997715;28;20027;-75
2021/07/09 00:33:59;;;;;;;1.35;0.60;;;;;;;;;;4997649;28;20483;-75
2021/07/09 00:36:26;;;;;;;0.60;0.60;;;;;;;;;;4998472;28;20558;-75
2021/07/09 00:38:52;;;;;;;0.60;0.60;;;;;;;;;;4997014;28;20018;-76
2021/07/09 00:41:18;;;;;;;1.08;0.52;;;;;;;;;;4995546;28;20034;-76
2021/07/09 00:43:44;;;;;;;0.50;0.50;;;;;;;;;;4997195;28;20495;-76
2021/07/09 00:46:12;;;;;;;0.63;0.63;;;;;;;;;;4995497;28;20047;-76
2021/07/09 00:48:38;;;;;;;0.28;0.28;;;;;;;;;;4997573;28;20022;-75
2021/07/09 00:51:08;;;;;;;0.55;0.52;;;;;;;;;;4997108;28;20022;-75
2021/07/09 00:53:35;;;;;;;0.30;0.30;;;;;;;;;;4996523;28;20042;-76
2021/07/09 00:56:01;;;;;;;3.60;0.60;;;;;;;;;;4996361;28;20034;-76
2021/07/09 00:58:27;;;;;;;1.17;0.55;;;;;;;;;;4996403;28;20026;-75
2021/07/09 01:00:54;;;;;;;0.93;0.65;;;;;;;;;;4996349;28;20041;-75
2021/07/09 01:03:21;;;;;;;1.17;0.60;;;;;;;;;;5008181;28;20057;-76
2021/07/09 01:05:47;;;;;;;1.15;0.50;;;;;;;;;;4999403;28;20035;-76
2021/07/09 01:08:13;;;;;;;0.45;0.40;;;;;;;;;;4996415;28;20029;-75
2021/07/09 01:10:43;;;;;;;0.55;0.47;;;;;;;;;;4996439;28;20626;-76
2021/07/09 01:13:09;;;;;;;0.52;0.40;;;;;;;;;;4995450;28;20022;-75
2021/07/09 01:15:35;;;;;;;0.50;0.30;;;;;;;;;;4995051;28;20026;-78
2021/07/09 01:18:02;;;;;;;2.40;0.47;;;;;;;;;;4995073;28;20022;-75
2021/07/09 01:20:28;;;;;;;1.77;0.70;;;;;;;;;;4996100;28;20030;-75
2021/07/09 01:22:56;;;;;;;0.52;0.52;;;;;;;;;;4996416;28;20034;-75
2021/07/09 01:25:23;;;;;;;0.50;0.50;;;;;;;;;;4995146;28;20030;-75
2021/07/09 01:27:50;;;;;;;0.73;0.60;;;;;;;;;;4996512;28;20074;-76
2021/07/09 01:30:19;;;;;;;0.50;0.50;;;;;;;;;;4995525;28;20030;-75
2021/07/09 01:32:45;;;;;;;0.68;0.68;;;;;;;;;;5002986;28;20034;-76
2021/07/09 01:35:11;;;;;;;1.27;0.55;;;;;;;;;;4997408;28;20034;-75
2021/07/09 01:37:38;;;;;;;0.85;0.50;;;;;;;;;;4996431;28;20514;-76
2021/07/09 01:40:08;;;;;;;0.45;0.45;;;;;;;;;;4995671;28;20030;-76
2021/07/09 01:42:34;;;;;;;0.30;0.30;;;;;;;;;;4996881;28;20023;-76
2021/07/09 01:45:00;;;;;;;0.30;0.30;;;;;;;;;;4997398;28;20031;-76
2021/07/09 01:47:26;;;;;;;0.43;0.43;;;;;;;;;;4996590;28;20395;-75
2021/07/09 01:49:54;;;;;;;0.73;0.50;;;;;;;;;;4995338;28;20113;-76
2021/07/09 01:52:21;;;;;;;1.20;0.70;;;;;;;;;;4995628;28;20468;-76
2021/07/09 01:54:47;;;;;;;0.30;0.30;;;;;;;;;;4995347;28;20042;-75
2021/07/09 01:57:13;;;;;;;0.45;0.45;;;;;;;;;;4995568;28;20102;-75
2021/07/09 01:59:40;;;;;;;1.30;0.60;;;;;;;;;;4995594;28;20041;-75
2021/07/09 02:02:07;;;;;;;0.30;0.30;;;;;;;;;;4996909;28;20030;-76
2021/07/09 02:04:34;;;;;;;0.40;0.40;;;;;;;;;;5006834;28;20044;-76
2021/07/09 02:07:00;;;;;;;1.85;0.30;;;;;;;;;;5010987;28;20097;-76
2021/07/09 02:09:26;;;;;;;1.75;0.40;;;;;;;;;;4995637;28;20033;-76
2021/07/09 02:11:52;;;;;;;0.35;0.35;;;;;;;;;;4995543;28;20058;-76
2021/07/09 02:14:18;;;;;;;1.20;0.68;;;;;;;;;;4994310;28;20077;-77
2021/07/09 02:16:44;;;;;;;0.40;0.38;;;;;;;;;;4995646;28;20030;-76
2021/07/09 02:19:11;;;;;;;0.95;0.40;;;;;;;;;;4995845;28;20042;-75
2021/07/09 02:21:38;;;;;;;1.83;0.40;;;;;;;;;;4999793;28;20117;-76
2021/07/09 02:24:04;;;;;;;0.30;0.30;;;;;;;;;;4995873;28;20036;-77
2021/07/09 02:26:30;;;;;;;2.13;0.40;;;;;;;;;;4994568;28;20042;-75
2021/07/09 02:28:56;;;;;;;0.32;0.32;;;;;;;;;;4995093;28;20030;-76
2021/07/09 02:31:24;;;;;;;0.40;0.40;;;;;;;;;;4995205;28;20468;-77
2021/07/09 02:33:50;;;;;;;0.25;0.25;;;;;;;;;;5003222;28;20026;-76
2021/07/09 02:36:16;;;;;;;0.40;0.40;;;;;;;;;;4999919;28;20034;-76
2021/07/09 02:38:42;;;;;;;0.30;0.30;;;;;;;;;;4993281;28;20034;-76
2021/07/09 02:41:08;;;;;;;0.40;0.40;;;;;;;;;;4994706;28;20383;-75
2021/07/09 02:43:34;;;;;;;0.20;0.20;;;;;;;;;;4994891;28;20022;-75
2021/07/09 02:46:00;;;;;;;0.77;0.22;;;;;;;;;;4994478;28;20031;-76
2021/07/09 02:48:26;;;;;;;0.32;0.10;;;;;;;;;;4994818;28;20088;-76
2021/07/09 02:50:52;;;;;;;0.52;0.20;;;;;;;;;;4994887;28;20518;-77
2021/07/09 02:53:18;;;;;;;0.55;0.00;;;;;;;;;;4994665;28;20038;-76
2021/07/09 02:55:44;;;;;;;0.43;0.10;;;;;;;;;;4994721;28;20041;-75
2021/07/09 02:58:11;;;;;;;0.10;0.10;;;;;;;;;;4994934;28;20507;-75
2021/07/09 03:00:37;;;;;;;0.10;0.10;;;;;;;;;;4994216;28;20026;-76
2021/07/09 03:03:03;;;;;;;0.52;0.20;;;;;;;;;;5002622;28;20060;-76
2021/07/09 03:05:29;;;;;;;0.45;0.10;;;;;;;;;;5006464;28;20034;-77
2021/07/09 03:07:55;;;;;;;1.05;0.30;;;;;;;;;;4994984;28;20085;-76
2021/07/09 03:10:21;;;;;;;0.30;0.30;;;;;;;;;;4995213;28;20030;-76
2021/07/09 03:12:48;;;;;;;0.20;0.20;;;;;;;;;;4994915;28;20130;-76
2021/07/09 03:15:14;;;;;;;0.73;0.22;;;;;;;;;;4994528;28;20159;-77
2021/07/09 03:17:40;;;;;;;0.20;0.20;;;;;;;;;;4994394;28;20026;-76
2021/07/09 03:20:07;;;;;;;0.20;0.20;;;;;;;;;;4993881;28;20064;-76
2021/07/09 03:22:34;;;;;;;0.20;0.20;;;;;;;;;;4994361;28;20030;-76
2021/07/09 03:25:00;;;;;;;0.10;0.10;;;;;;;;;;4995014;28;20043;-77
2021/07/09 03:27:26;;;;;;;0.15;0.10;;;;;;;;;;4994491;28;20113;-76
2021/07/09 03:29:52;;;;;;;0.28;0.10;;;;;;;;;;4993031;28;20445;-76
2021/07/09 03:32:18;;;;;;;0.57;0.28;;;;;;;;;;4997749;28;20077;-77
2021/07/09 03:34:44;;;;;;;0.10;0.10;;;;;;;;;;4998369;28;20069;-75
2021/07/09 03:37:10;;;;;;;0.00;0.00;;;;;;;;;;4994689;28;20031;-74
2021/07/09 03:39:36;;;;;;;0.00;0.00;;;;;;;;;;4993875;28;20106;-75
2021/07/09 03:42:02;;;;;;;0.20;0.20;;;;;;;;;;4994697;28;20032;-76
2021/07/09 03:44:28;;;;;;;0.30;0.22;;;;;;;;;;4994276;28;20045;-76
2021/07/09 03:46:54;;;;;;;0.40;0.10;;;;;;;;;;4994090;28;20034;-76
2021/07/09 03:49:20;;;;;;;0.28;0.08;;;;;;;;;;4993969;28;20069;-76
2021/07/09 03:51:47;;;;;;;1.27;0.10;;;;;;;;;;4994371;28;20034;-76
2021/07/09 03:54:13;;;;;;;0.10;0.10;;;;;;;;;;4994651;28;20064;-76
2021/07/09 03:56:39;;;;;;;0.10;0.10;;;;;;;;;;4994548;28;20546;-77
2021/07/09 03:59:05;;;;;;;0.90;0.20;;;;;;;;;;4994953;28;20035;-77
2021/07/09 04:01:31;;;;;;;0.10;0.10;;;;;;;;;;4996358;28;20027;-76
2021/07/09 04:03:57;;;;;;;0.20;0.20;;;;;;;;;;5008519;28;20025;-75
2021/07/09 04:06:23;;;;;;;0.10;0.10;;;;;;;;;;4993766;28;20447;-77
2021/07/09 04:08:49;;;;;;;0.10;0.10;;;;;;;;;;4993852;28;20034;-76
2021/07/09 04:11:15;;;;;;;0.57;0.20;;;;;;;;;;4994389;28;20042;-76
2021/07/09 04:13:41;;;;;;;0.15;0.15;;;;;;;;;;4993817;28;20073;-76
2021/07/09 04:16:07;;;;;;;0.40;0.40;;;;;;;;;;4992918;28;20026;-76
2021/07/09 04:18:34;;;;;;;0.20;0.20;;;;;;;;;;4993674;28;20018;-77
2021/07/09 04:21:00;;;;;;;1.20;0.25;;;;;;;;;;4993992;28;20049;-76
2021/07/09 04:23:27;;;;;;;0.38;0.20;;;;;;;;;;4993982;28;20022;-76
2021/07/09 04:25:53;;;;;;;0.30;0.30;;;;;;;;;;4993911;28;20029;-77
2021/07/09 04:28:19;;;;;;;0.35;0.35;;;;;;;;;;4993569;28;20026;-76
2021/07/09 04:30:45;;;;;;;0.50;0.50;;;;;;;;;;4994434;28;20602;-75
2021/07/09 04:33:11;;;;;;;1.08;0.40;;;;;;;;;;5004903;28;20062;-75
2021/07/09 04:35:37;;;;;;;0.20;0.20;;;;;;;;;;5008225;28;20069;-76
2021/07/09 04:38:03;;;;;;;0.35;0.35;;;;;;;;;;4995001;28;20034;-76
2021/07/09 04:40:29;;;;;;;0.30;0.30;;;;;;;;;;4993807;28;20109;-76
2021/07/09 04:42:55;;;;;;;0.20;0.20;;;;;;;;;;4994198;28;20037;-76
2021/07/09 04:45:21;;;;;;;0.43;0.20;;;;;;;;;;4994319;28;20469;-76
2021/07/09 04:47:47;;;;;;;0.30;0.30;;;;;;;;;;4997300;28;20508;-75
2021/07/09 04:50:13;;;;;;;0.20;0.20;;;;;;;;;;4997051;28;20030;-76
2021/07/09 04:52:39;;;;;;;0.30;0.30;;;;;;;;;;4997459;28;20022;-78
2021/07/09 04:55:06;;;;;;;0.38;0.38;;;;;;;;;;4996949;28;20121;-76
2021/07/09 04:57:32;;;;;;;0.55;0.55;;;;;;;;;;4997533;28;20454;-76
2021/07/09 04:59:58;;;;;;;0.57;0.30;;;;;;;;;;4996820;28;20035;-77
2021/07/09 05:02:25;;;;;;;2.25;0.70;;;;;;;;;;5001166;28;20364;-76
2021/07/09 05:04:51;;;;;;;0.40;0.40;;;;;;;;;;5008443;28;20030;-75
2021/07/09 05:07:17;;;;;;;0.32;0.30;;;;;;;;;;5016864;28;20026;-75
2021/07/09 05:09:43;;;;;;;0.50;0.50;;;;;;;;;;5003993;28;20506;-75
2021/07/09 05:12:09;;;;;;;0.82;0.73;;;;;;;;;;4997985;28;20144;-75
2021/07/09 05:14:35;;;;;;;1.63;0.60;;;;;;;;;;4998005;28;20022;-76
2021/07/09 05:17:02;;;;;;;3.20;0.85;;;;;;;;;;4998673;28;20147;-76
2021/07/09 05:19:28;;;;;;;0.40;0.40;;;;;;;;;;4997064;28;20037;-76
2021/07/09 05:21:54;;;;;;;0.45;0.40;;;;;;;;;;4996809;28;20066;-75
2021/07/09 05:24:22;;;;;;;0.60;0.60;;;;;;;;;;4994945;28;20031;-75
2021/07/09 05:26:48;;;;;;;0.50;0.50;;;;;;;;;;4997397;28;20104;-76
2021/07/09 05:29:14;;;;;;;1.98;0.45;;;;;;;;;;4996294;28;20061;-76
2021/07/09 05:31:41;;;;;;;0.85;0.32;;;;;;;;;;4996013;28;20030;-75
2021/07/09 05:34:10;;;;;;;0.55;0.52;;;;;;;;;;5006468;28;20021;-77
2021/07/09 05:36:37;;;;;;;7.72;0.70;;;;;;;;;;5000451;28;20034;-76
2021/07/09 05:39:03;;;;;;;5.85;1.17;;;;;;;;;;4988559;28;20031;-77
2021/07/09 05:41:29;;;;;;;2.95;0.73;;;;;;;;;;4977852;28;20420;-77
2021/07/09 05:43:55;;;;;;;6.38;0.90;;;;;;;;;;4994384;28;20035;-76
2021/07/09 05:46:21;;;;;;;9.05;1.33;;;;;;;;;;4998432;28;20033;-77
2021/07/09 05:48:47;;;;;;;9.98;1.70;;;;;;;;;;4996637;28;20030;-77
2021/07/09 05:51:13;;;;;;;11.60;1.48;;;;;;;;;;4995964;28;20514;-77
2021/07/09 05:53:40;;;;;;;13.60;1.70;;;;;;;;;;4995781;28;20092;-76
2021/07/09 05:56:06;;;;;;;8.23;1.20;;;;;;;;;;4997431;28;20022;-76
2021/07/09 05:58:32;;;;;;;13.85;1.48;;;;;;;;;;4995416;28;20022;-76
2021/07/09 06:00:58;;;;;;;12.75;1.08;;;;;;;;;;4996048;28;20050;-76
2021/07/09 06:03:24;;;;;;;17.63;1.25;;;;;;;;;;4999311;28;20103;-76
2021/07/09 06:05:50;;;;;;;13.10;1.35;;;;;;;;;;4999157;28;20049;-77
2021/07/09 06:08:16;;;;;;;18.73;1.58;;;;;;;;;;4997940;28;20483;-76
2021/07/09 06:10:42;;;;;;;4.03;0.47;;;;;;;;;;4997164;28;20045;-76
2021/07/09 06:13:09;;;;;;;8.60;0.70;;;;;;;;;;4997142;28;20467;-77
2021/07/09 06:15:35;;;;;;;19.77;1.45;;;;;;;;;;4994620;28;20519;-76
2021/07/09 06:18:01;;;;;;;7.47;0.95;;;;;;;;;;4995945;28;20057;-76
2021/07/09 06:20:27;;;;;;;8.75;1.20;;;;;;;;;;4977343;28;20037;-76
2021/07/09 06:22:53;;;;;;;17.15;1.48;;;;;;;;;;4990805;28;20431;-76
2021/07/09 06:25:19;;;;;;;6.20;0.80;;;;;;;;;;4996010;28;20031;-75
2021/07/09 06:27:46;;;;;;;3.22;0.50;;;;;;;;;;4998262;28;20082;-75
2021/07/09 06:30:12;;;;;;;2.63;0.60;;;;;;;;;;4994337;28;20426;-77
2021/07/09 06:32:39;;;;;;;2.67;0.40;;;;;;;;;;4996176;28;20090;-76
2021/07/09 06:35:07;;;;;;;1.65;0.30;;;;;;;;;;5006159;28;20467;-76
2021/07/09 06:37:33;;;;;;;0.93;0.50;;;;;;;;;;5002363;28;20056;-77
2021/07/09 06:40:00;;;;;;;1.83;0.70;;;;;;;;;;4995670;28;20634;-76
2021/07/09 06:42:26;;;;;;;1.92;0.68;;;;;;;;;;4995826;28;20037;-77
2021/07/09 06:44:52;;;;;;;2.78;0.73;;;;;;;;;;4995047;28;20026;-76
2021/07/09 06:47:20;;;;;;;0.50;0.50;;;;;;;;;;4994846;28;20177;-75
2021/07/09 06:49:46;;;;;;;0.63;0.50;;;;;;;;;;4993542;28;20022;-75
2021/07/09 06:52:12;;;;;;;0.40;0.40;;;;;;;;;;4994797;28;20042;-76
2021/07/09 06:54:38;;;;;;;0.60;0.60;;;;;;;;;;4995813;28;20022;-77
2021/07/09 06:57:04;;;;;;;0.50;0.50;;;;;;;;;;4995985;28;20033;-76
2021/07/09 06:59:31;;;;;;;0.75;0.70;;;;;;;;;;4994748;28;20022;-75
2021/07/09 07:01:57;;;;;;;0.70;0.70;;;;;;;;;;4994485;28;20022;-76
2021/07/09 07:04:23;;;;;;;0.77;0.50;;;;;;;;;;5004647;28;20026;-75
2021/07/09 07:06:51;;;;;;;2.80;0.93;;;;;;;;;;5013577;28;20112;-76
2021/07/09 07:09:17;;;;;;;3.30;0.88;;;;;;;;;;5014418;28;20017;-77
2021/07/09 07:11:43;;;;;;;1.48;0.77;;;;;;;;;;4994959;28;20391;-77
2021/07/09 07:14:09;;;;;;;1.02;0.98;;;;;;;;;;4995959;28;20395;-76
2021/07/09 07:16:35;;;;;;;4.13;0.80;;;;;;;;;;4997615;28;20027;-76
2021/07/09 07:19:01;;;;;;;1.55;0.73;;;;;;;;;;4995238;28;20387;-77
2021/07/09 07:21:27;;;;;;;0.63;0.63;;;;;;;;;;4994074;28;20031;-75
2021/07/09 07:23:53;;;;;;;2.05;1.45;;;;;;;;;;4994623;28;20037;-76
2021/07/09 07:26:19;;;;;;;1.13;0.80;;;;;;;;;;4994444;28;20026;-76
2021/07/09 07:28:45;;;;;;;1.20;0.68;;;;;;;;;;4994545;28;20066;-77
2021/07/09 07:31:11;;;;;;;0.82;0.80;;;;;;;;;;4993345;28;20030;-76
2021/07/09 07:33:38;;;;;;;2.40;0.73;;;;;;;;;;5001572;28;20022;-77
2021/07/09 07:36:04;;;;;;;1.17;0.80;;;;;;;;;;5011140;28;20041;-76
2021/07/09 07:38:30;;;;;;;1.20;1.00;;;;;;;;;;5012553;28;20022;-76
2021/07/09 07:40:56;;;;;;;0.73;0.73;;;;;;;;;;5008815;28;20019;-77
2021/07/09 07:43:22;;;;;;;2.08;0.90;;;;;;;;;;4994326;28;20069;-76
2021/07/09 07:45:49;;;;;;;1.98;0.90;;;;;;;;;;4994317;28;20030;-76
2021/07/09 07:48:15;;;;;;;1.40;0.68;;;;;;;;;;4993553;28;20026;-76
2021/07/09 07:50:41;;;;;;;1.10;0.90;;;;;;;;;;4993560;28;20042;-77
2021/07/09 07:53:07;;;;;;;0.73;0.73;;;;;;;;;;4994595;28;20086;-75
2021/07/09 07:55:33;;;;;;;1.35;1.00;;;;;;;;;;4993180;28;20477;-76
2021/07/09 07:57:59;;;;;;;2.05;0.90;;;;;;;;;;4994359;28;20030;-76
2021/07/09 08:00:27;;;;;;;0.70;0.70;;;;;;;;;;4993087;28;20035;-77
2021/07/09 08:02:53;;;;;;;1.65;1.55;;;;;;;;;;5001210;28;20030;-77
2021/07/09 08:05:21;;;;;;;1.48;0.80;;;;;;;;;;5003561;28;20483;-76
2021/07/09 08:07:47;;;;;;;1.42;0.93;;;;;;;;;;5013153;28;20030;-76
2021/07/09 08:10:13;;;;;;;1.38;1.00;;;;;;;;;;5012642;28;20057;-75
2021/07/09 08:12:39;;;;;;;1.00;1.00;;;;;;;;;;5002032;28;20120;-75
2021/07/09 08:15:06;;;;;;;3.60;1.30;;;;;;;;;;4992817;28;20062;-77
2021/07/09 08:17:32;;;;;;;1.42;1.00;;;;;;;;;;4992735;28;20030;-77
2021/07/09 08:19:58;;;;;;;2.75;0.93;;;;;;;;;;4993766;28;20113;-77
2021/07/09 08:22:24;;;;;;;1.00;0.90;;;;;;;;;;4996568;28;20026;-76
2021/07/09 08:24:50;;;;;;;1.08;1.08;;;;;;;;;;4997120;28;20026;-77
2021/07/09 08:27:16;;;;;;;1.20;1.10;;;;;;;;;;4999780;28;20030;-76
2021/07/09 08:29:42;;;;;;;1.38;1.27;;;;;;;;;;4988523;28;20109;-77
2021/07/09 08:32:09;;;;;;;0.80;0.73;;;;;;;;;;4995934;28;20390;-76
2021/07/09 08:34:36;;;;;;;1.15;0.90;;;;;;;;;;5002026;28;20102;-75
2021/07/09 08:37:03;;;;;;;1.98;0.70;;;;;;;;;;4999572;28;20050;-75
2021/07/09 08:39:29;;;;;;;0.70;0.70;;;;;;;;;;4996620;28;20030;-76
2021/07/09 08:41:56;;;;;;;1.77;0.90;;;;;;;;;;4996543;28;20113;-76
2021/07/09 08:44:22;;;;;;;1.08;0.98;;;;;;;;;;4996711;28;20442;-76
2021/07/09 08:46:48;;;;;;;1.70;1.10;;;;;;;;;;4996808;28;20027;-76
2021/07/09 08:49:16;;;;;;;0.80;0.80;;;;;;;;;;4996543;28;20054;-76
2021/07/09 08:51:43;;;;;;;1.00;0.93;;;;;;;;;;4996835;28;20026;-75
2021/07/09 08:54:10;;;;;;;1.23;1.08;;;;;;;;;;4996406;28;20045;-76
2021/07/09 08:56:36;;;;;;;1.67;1.17;;;;;;;;;;4995462;28;20080;-76
2021/07/09 08:59:02;;;;;;;1.08;1.08;;;;;;;;;;4996870;28;20037;-76
2021/07/09 09:01:28;;;;;;;1.33;1.00;;;;;;;;;;4998986;28;20026;-76
2021/07/09 09:04:05;;;;;;;0.95;0.80;;;;;;;;;;5007057;28;20085;-74
2021/07/09 09:06:31;;;;;;;0.98;0.85;;;;;;;;;;5011491;28;20034;-75
2021/07/09 09:08:57;;;;;;;1.13;0.90;;;;;;;;;;4999174;28;20039;-75
2021/07/09 09:11:23;;;;;;;1.75;0.57;;;;;;;;;;4994268;28;20022;-76
2021/07/09 09:13:49;;;;;;;0.90;0.90;;;;;;;;;;4995404;28;20113;-77
2021/07/09 09:16:16;;;;;;;1.02;1.00;;;;;;;;;;4995719;28;20061;-76
2021/07/09 09:18:43;;;;;;;0.77;0.77;;;;;;;;;;4995313;28;20472;-76
2021/07/09 09:21:13;;;;;;;2.58;1.45;;;;;;;;;;5001781;28;20057;-75
2021/07/09 09:24:01;;;;;;;1.60;0.85;;;;;;;;;;5002833;28;20026;-75
2021/07/09 09:26:45;;;;;;;1.23;0.82;;;;;;;;;;4985583;28;20034;-75
2021/07/09 09:29:12;;;;;;;1.55;0.90;;;;;;;;;;4984057;28;20030;-75
2021/07/09 09:31:39;;;;;;;0.60;0.60;;;;;;;;;;4982982;28;20055;-76
2021/07/09 09:34:05;;;;;;;1.83;0.60;;;;;;;;;;4981871;28;20047;-75
2021/07/09 09:36:32;;;;;;;1.65;1.55;;;;;;;;;;5006844;28;20087;-75
2021/07/09 09:39:02;;;;;;;1.10;1.00;;;;;;;;;;5004409;28;20330;-75
2021/07/09 09:41:28;;;;;;;1.00;0.80;;;;;;;;;;5001006;28;20045;-75
2021/07/09 09:44:10;;;;;;;1.00;0.82;;;;;;;;;;5001623;28;20026;-74
2021/07/09 09:46:36;;;;;;;1.42;0.95;;;;;;;;;;5001675;28;20053;-75
2021/07/09 09:49:04;;;;;;;0.77;0.77;;;;;;;;;;5001519;28;20109;-76
2021/07/09 09:51:36;;;;;;;0.85;0.70;;;;;;;;;;4995463;28;20024;-76
2021/07/09 09:54:04;;;;;;;2.78;1.10;;;;;;;;;;4995306;28;20030;-76
2021/07/09 09:56:37;;;;;;;1.70;1.00;;;;;;;;;;4993538;28;20049;-76
2021/07/09 09:59:39;;;;;;;0.85;0.85;;;;;;;;;;4994409;28;20026;-76
2021/07/09 10:02:08;;;;;;;1.88;1.08;;;;;;;;;;4896761;29;20562;-76
2021/07/09 10:04:34;;;;;;;1.52;1.23;;;;;;;;;;4977397;28;20038;-76
2021/07/09 10:07:01;;;;;;;1.15;0.80;;;;;;;;;;5002360;28;20037;-76
2021/07/09 10:09:28;;;;;;;1.90;1.23;;;;;;;;;;5003816;28;20195;-77
2021/07/09 10:11:54;;;;;;;1.58;1.05;;;;;;;;;;4994867;28;20109;-77
2021/07/09 10:14:21;;;;;;;3.47;1.10;;;;;;;;;;4994717;28;20022;-76
2021/07/09 10:16:49;;;;;;;1.00;1.00;;;;;;;;;;4994327;28;20510;-75
2021/07/09 10:19:19;;;;;;;1.27;1.17;;;;;;;;;;4993541;28;20038;-75
2021/07/09 10:21:45;;;;;;;1.80;1.52;;;;;;;;;;4993192;28;20045;-75
2021/07/09 10:24:14;;;;;;;2.50;2.30;;;;;;;;;;4994394;28;20026;-75
2021/07/09 10:26:44;;;;;;;1.70;1.30;;;;;;;;;;4994862;28;20419;-76
2021/07/09 10:29:10;;;;;;;1.83;1.33;;;;;;;;;;4994643;28;20022;-76
2021/07/09 10:31:37;;;;;;;2.35;1.23;;;;;;;;;;4994921;28;20427;-75
2021/07/09 10:34:22;;;;;;;1.67;1.27;;;;;;;;;;4994391;28;20073;-75
2021/07/09 10:36:52;;;;;;;1.30;1.20;;;;;;;;;;4994005;28;20037;-75
2021/07/09 10:39:38;;;;;;;1.27;1.17;;;;;;;;;;5004901;28;20029;-76
2021/07/09 10:42:19;;;;;;;2.10;1.40;;;;;;;;;;4994245;28;20026;-76
2021/07/09 10:44:57;;;;;;;2.17;1.60;;;;;;;;;;4994114;28;20157;-76
2021/07/09 10:47:24;;;;;;;2.03;1.58;;;;;;;;;;4994373;28;20022;-76
2021/07/09 10:49:50;;;;;;;2.15;1.63;;;;;;;;;;5001619;28;20080;-76
2021/07/09 10:52:36;;;;;;;2.08;1.88;;;;;;;;;;5009260;28;20402;-76
2021/07/09 10:55:22;;;;;;;2.97;1.98;;;;;;;;;;5003624;28;20042;-76
2021/07/09 10:58:06;;;;;;;3.05;1.92;;;;;;;;;;5006221;28;20387;-76
2021/07/09 11:00:50;;;;;;;2.10;1.90;;;;;;;;;;4992177;28;20034;-77
2021/07/09 11:03:30;;;;;;;2.58;1.90;;;;;;;;;;4993985;28;20022;-76
2021/07/09 11:06:02;;;;;;;2.47;1.90;;;;;;;;;;4994519;28;20034;-76
2021/07/09 11:08:31;;;;;;;2.92;2.38;;;;;;;;;;4994821;28;20114;-75
2021/07/09 11:10:58;;;;;;;6.72;1.98;;;;;;;;;;4992722;28;20018;-75
2021/07/09 11:13:42;;;;;;;1.60;1.50;;;;;;;;;;4993391;28;20049;-75
2021/07/09 11:16:18;;;;;;;2.38;2.15;;;;;;;;;;4993421;28;20045;-76
2021/07/09 11:18:53;;;;;;;2.72;2.10;;;;;;;;;;4991853;28;20026;-76
2021/07/09 11:21:31;;;;;;;4.95;2.75;;;;;;;;;;4997272;28;20562;-75
2021/07/09 11:24:11;;;;;;;2.35;2.15;;;;;;;;;;4993643;28;20065;-76
2021/07/09 11:26:40;;;;;;;4.95;2.47;;;;;;;;;;4993482;28;20409;-77
2021/07/09 11:29:25;;;;;;;3.25;2.22;;;;;;;;;;4992968;28;20034;-75
2021/07/09 11:31:51;;;;;;;2.90;2.70;;;;;;;;;;4993331;28;20479;-76
2021/07/09 11:34:19;;;;;;;2.72;2.50;;;;;;;;;;4992986;28;20045;-77
2021/07/09 11:36:50;;;;;;;6.03;3.20;;;;;;;;;;4994395;28;20560;-75
2021/07/09 11:39:35;;;;;;;3.30;3.00;;;;;;;;;;4992250;28;20492;-75
2021/07/09 11:42:01;;;;;;;3.15;2.42;;;;;;;;;;4991336;28;20408;-75
2021/07/09 11:44:39;;;;;;;2.50;2.22;;;;;;;;;;4975837;28;20494;-75
2021/07/09 11:47:08;;;;;;;4.88;2.50;;;;;;;;;;4991537;28;20022;-76
2021/07/09 11:49:36;;;;;;;3.72;2.60;;;;;;;;;;4994702;28;20101;-75
2021/07/09 11:52:09;;;;;;;2.42;1.98;;;;;;;;;;4997703;28;20027;-75
2021/07/09 11:54:40;;;;;;;1.88;1.73;;;;;;;;;;4992713;28;20026;-76
2021/07/09 11:57:08;;;;;;;2.80;2.22;;;;;;;;;;4995714;28;20080;-75
2021/07/09 11:59:34;;;;;;;3.08;2.88;;;;;;;;;;4996516;28;20387;-75
2021/07/09 12:02:01;;;;;;;3.40;2.50;;;;;;;;;;4995245;28;20486;-75
2021/07/09 12:04:46;;;;;;;4.45;3.65;;;;;;;;;;4996479;28;20093;-77
2021/07/09 12:07:13;;;;;;;4.63;2.97;;;;;;;;;;4996130;28;20429;-75
2021/07/09 12:09:39;;;;;;;3.10;2.80;;;;;;;;;;4995795;28;20033;-74
2021/07/09 12:12:05;;;;;;;5.10;3.45;;;;;;;;;;4996587;28;20407;-75
2021/07/09 12:14:32;;;;;;;4.20;3.05;;;;;;;;;;4996752;28;20030;-75
2021/07/09 12:16:59;;;;;;;3.85;2.70;;;;;;;;;;4996199;28;20042;-75
2021/07/09 12:19:25;;;;;;;3.40;3.10;;;;;;;;;;4998586;28;20029;-75
2021/07/09 12:21:54;;;;;;;6.22;2.90;;;;;;;;;;5005024;28;20026;-76
2021/07/09 12:24:21;;;;;;;3.38;2.90;;;;;;;;;;4996908;28;20085;-76
2021/07/09 12:26:48;;;;;;;4.85;2.65;;;;;;;;;;4996611;28;20134;-75
2021/07/09 12:29:14;;;;;;;2.65;2.45;;;;;;;;;;4996464;28;20038;-75
2021/07/09 12:31:41;;;;;;;2.80;2.17;;;;;;;;;;4994542;28;20058;-76
2021/07/09 12:34:22;;;;;;;3.92;2.90;;;;;;;;;;4996726;28;20026;-76
2021/07/09 12:36:48;;;;;;;3.33;2.75;;;;;;;;;;4996007;28;20034;-75
2021/07/09 12:39:23;;;;;;;5.18;2.92;;;;;;;;;;4996597;28;20054;-76
2021/07/09 12:41:49;;;;;;;3.95;2.28;;;;;;;;;;4995189;28;20057;-76
2021/07/09 12:44:17;;;;;;;5.00;3.40;;;;;;;;;;4996615;28;20038;-76
2021/07/09 12:46:44;;;;;;;4.53;2.78;;;;;;;;;;4996378;28;20033;-76
2021/07/09 12:49:10;;;;;;;3.08;2.33;;;;;;;;;;4995963;28;20503;-76
2021/07/09 12:51:36;;;;;;;3.00;2.33;;;;;;;;;;4995542;28;20026;-75
2021/07/09 12:54:03;;;;;;;2.40;2.20;;;;;;;;;;4996216;28;20026;-75
2021/07/09 12:56:31;;;;;;;4.45;2.85;;;;;;;;;;4996096;28;20383;-76
2021/07/09 12:59:05;;;;;;;5.30;2.47;;;;;;;;;;4995132;28;20026;-75
2021/07/09 13:01:31;;;;;;;2.20;2.05;;;;;;;;;;4995629;28;20530;-76
2021/07/09 13:03:57;;;;;;;3.97;2.60;;;;;;;;;;4995203;28;20018;-77
2021/07/09 13:06:28;;;;;;;2.25;2.05;;;;;;;;;;4995514;28;20368;-76
2021/07/09 13:09:08;;;;;;;2.30;2.10;;;;;;;;;;4994838;28;20094;-76
2021/07/09 13:11:38;;;;;;;3.30;2.15;;;;;;;;;;4995739;28;20561;-76
2021/07/09 13:14:05;;;;;;;2.20;1.98;;;;;;;;;;4996019;28;20019;-76
2021/07/09 13:16:31;;;;;;;2.80;2.60;;;;;;;;;;4993264;28;20026;-76
2021/07/09 13:18:58;;;;;;;2.33;2.20;;;;;;;;;;4984709;28;20022;-75
2021/07/09 13:21:26;;;;;;;3.20;2.70;;;;;;;;;;5000150;28;20022;-75
2021/07/09 13:24:07;;;;;;;2.92;2.28;;;;;;;;;;5003582;28;20106;-75
2021/07/09 13:26:36;;;;;;;4.22;2.40;;;;;;;;;;4994901;28;20066;-75
2021/07/09 13:29:03;;;;;;;3.22;1.80;;;;;;;;;;4997810;28;20092;-75
2021/07/09 13:31:30;;;;;;;2.72;1.80;;;;;;;;;;4991912;28;20050;-76
2021/07/09 13:33:56;;;;;;;1.85;1.75;;;;;;;;;;4983118;28;20078;-76
2021/07/09 13:36:32;;;;;;;1.80;1.70;;;;;;;;;;5015076;28;20030;-76
2021/07/09 13:38:58;;;;;;;2.53;2.30;;;;;;;;;;4993419;28;20455;-74
2021/07/09 13:41:24;;;;;;;2.70;2.30;;;;;;;;;;4996227;28;20419;-75
2021/07/09 13:43:50;;;;;;;3.42;2.17;;;;;;;;;;4995448;28;20456;-75
2021/07/09 13:46:17;;;;;;;2.28;2.08;;;;;;;;;;4995308;28;20034;-77
2021/07/09 13:48:43;;;;;;;2.65;2.33;;;;;;;;;;4995053;28;20088;-76
2021/07/09 13:51:14;;;;;;;2.20;1.80;;;;;;;;;;5005005;28;20041;-76
2021/07/09 13:53:40;;;;;;;1.88;1.60;;;;;;;;;;5002460;28;20050;-76
2021/07/09 13:56:06;;;;;;;1.90;1.80;;;;;;;;;;4996716;28;20034;-74
2021/07/09 13:58:32;;;;;;;2.92;2.17;;;;;;;;;;4993852;28;20037;-76
2021/07/09 14:00:58;;;;;;;2.05;1.80;;;;;;;;;;4996095;28;20042;-76
2021/07/09 14:03:25;;;;;;;2.90;2.33;;;;;;;;;;4994748;28;20101;-76
2021/07/09 14:05:51;;;;;;;3.80;2.38;;;;;;;;;;4992913;28;20036;-75
2021/07/09 14:08:17;;;;;;;2.67;2.47;;;;;;;;;;4994201;28;20035;-76
2021/07/09 14:10:43;;;;;;;3.38;2.13;;;;;;;;;;4995083;28;20098;-77
2021/07/09 14:13:09;;;;;;;2.38;2.13;;;;;;;;;;4995144;28;20387;-76
2021/07/09 14:15:36;;;;;;;2.33;2.08;;;;;;;;;;4994833;28;20022;-76
2021/07/09 14:18:02;;;;;;;2.17;1.55;;;;;;;;;;4994761;28;20034;-77
2021/07/09 14:20:28;;;;;;;1.85;1.75;;;;;;;;;;5002498;28;20383;-76
2021/07/09 14:22:54;;;;;;;1.92;1.83;;;;;;;;;;4996053;28;20086;-76
2021/07/09 14:25:21;;;;;;;1.80;1.70;;;;;;;;;;4996260;28;20033;-76
2021/07/09 14:27:47;;;;;;;2.22;1.45;;;;;;;;;;4995282;28;20093;-76
2021/07/09 14:30:14;;;;;;;2.10;1.90;;;;;;;;;;4994616;28;20096;-75
2021/07/09 14:32:40;;;;;;;2.85;1.98;;;;;;;;;;4995360;28;20022;-76
2021/07/09 14:35:06;;;;;;;1.63;1.52;;;;;;;;;;4995119;28;20030;-77
2021/07/09 14:37:32;;;;;;;2.42;2.00;;;;;;;;;;4994478;28;20026;-76
2021/07/09 14:39:58;;;;;;;2.30;2.10;;;;;;;;;;4994250;28;20035;-77
2021/07/09 14:42:24;;;;;;;2.15;1.95;;;;;;;;;;4995030;28;20048;-77
2021/07/09 14:44:51;;;;;;;2.33;1.52;;;;;;;;;;4995109;28;20034;-76
2021/07/09 14:47:17;;;;;;;2.35;1.88;;;;;;;;;;4995181;28;20529;-77